createdAt,value
2023-12-18T00:00:02.776Z,77.11
2023-12-18T00:03:05.756Z,77.11
2023-12-18T00:06:07.621Z,77.09
2023-12-18T00:09:09.344Z,76.97
2023-12-18T00:12:11.847Z,76.94
2023-12-18T00:15:13.821Z,76.76
2023-12-18T00:18:15.602Z,76.93
2023-12-18T00:21:17.521Z,76.89
2023-12-18T00:24:19.353Z,76.80
2023-12-18T00:27:21.076Z,76.88
2023-12-18T00:30:22.909Z,76.87
2023-12-18T00:33:24.871Z,76.81
2023-12-18T00:36:26.676Z,76.73
2023-12-18T00:39:28.660Z,76.69
2023-12-18T00:42:30.350Z,76.53
2023-12-18T00:45:31.996Z,76.58
2023-12-18T00:48:33.796Z,76.52
2023-12-18T00:51:35.581Z,76.47
2023-12-18T00:54:37.427Z,76.15
2023-12-18T00:57:39.296Z,75.90
2023-12-18T01:00:41.059Z,75.74
2023-12-18T01:03:43.109Z,75.50
2023-12-18T01:06:45.472Z,75.55
2023-12-18T01:09:47.277Z,75.52
2023-12-18T01:12:48.806Z,75.60
2023-12-18T01:15:50.687Z,75.88
2023-12-18T01:18:52.416Z,75.79
2023-12-18T01:21:54.222Z,76.08
2023-12-18T01:24:55.874Z,76.08
2023-12-18T01:27:57.576Z,76.31
2023-12-18T01:30:59.429Z,76.45
2023-12-18T01:34:01.498Z,76.38
2023-12-18T01:37:03.344Z,76.37
2023-12-18T01:40:05.507Z,76.35
2023-12-18T01:43:26.582Z,76.50
2023-12-18T01:46:28.414Z,76.56
2023-12-18T01:49:29.998Z,76.61
2023-12-18T01:52:32.166Z,76.73
2023-12-18T01:55:33.766Z,76.85
2023-12-18T01:58:35.337Z,76.91
2023-12-18T02:01:37.741Z,77.03
2023-12-18T02:04:39.465Z,77.13
2023-12-18T02:07:41.555Z,77.15
2023-12-18T02:10:43.802Z,77.02
2023-12-18T02:13:45.488Z,76.96
2023-12-18T02:16:47.048Z,76.98
2023-12-18T02:19:48.686Z,76.87
2023-12-18T02:22:50.549Z,77.12
2023-12-18T02:25:52.086Z,77.03
2023-12-18T02:28:53.796Z,76.95
2023-12-18T02:31:55.337Z,77.13
2023-12-18T02:34:57.120Z,77.06
2023-12-18T02:37:58.870Z,76.96
2023-12-18T02:41:00.996Z,76.94
2023-12-18T02:44:02.662Z,76.78
2023-12-18T02:47:04.335Z,76.88
2023-12-18T02:50:06.176Z,76.92
2023-12-18T02:53:07.830Z,76.87
2023-12-18T02:56:09.437Z,76.90
2023-12-18T02:59:11.075Z,76.84
2023-12-18T03:02:13.421Z,76.72
2023-12-18T03:05:15.403Z,76.64
2023-12-18T03:08:17.122Z,76.71
2023-12-18T03:11:18.927Z,76.66
2023-12-18T03:14:20.645Z,76.41
2023-12-18T03:17:22.551Z,76.31
2023-12-18T03:20:24.623Z,76.36
2023-12-18T03:23:26.433Z,76.24
2023-12-18T03:26:28.147Z,76.02
2023-12-18T03:29:29.697Z,75.88
2023-12-18T03:32:31.599Z,75.74
2023-12-18T03:35:33.320Z,75.94
2023-12-18T03:38:34.881Z,75.76
2023-12-18T03:41:36.651Z,75.62
2023-12-18T03:44:38.378Z,75.70
2023-12-18T03:47:40.117Z,75.60
2023-12-18T03:50:42.011Z,75.73
2023-12-18T03:53:43.577Z,76.00
2023-12-18T03:56:45.222Z,76.14
2023-12-18T03:59:46.822Z,76.24
2023-12-18T04:02:48.508Z,76.35
2023-12-18T04:05:50.198Z,76.44
2023-12-18T04:08:51.857Z,76.31
2023-12-18T04:11:53.521Z,76.11
2023-12-18T04:14:55.204Z,76.16
2023-12-18T04:17:56.961Z,76.11
2023-12-18T04:20:58.674Z,76.30
2023-12-18T04:24:00.303Z,76.35
2023-12-18T04:27:01.920Z,76.31
2023-12-18T04:30:03.788Z,76.21
2023-12-18T04:33:05.804Z,75.98
2023-12-18T04:36:07.853Z,76.01
2023-12-18T04:39:11.309Z,75.89
2023-12-18T04:42:13.104Z,75.85
2023-12-18T04:45:14.770Z,75.83
2023-12-18T04:48:16.531Z,75.85
2023-12-18T04:51:18.984Z,75.83
2023-12-18T04:54:20.690Z,75.91
2023-12-18T04:57:22.437Z,75.78
2023-12-18T05:00:24.259Z,76.00
2023-12-18T05:03:25.997Z,76.15
2023-12-18T05:06:29.155Z,76.23
2023-12-18T05:09:31.248Z,76.08
2023-12-18T05:12:32.950Z,76.05
2023-12-18T05:15:34.684Z,76.17
2023-12-18T05:18:36.579Z,76.31
2023-12-18T05:21:38.430Z,76.30
2023-12-18T05:24:40.585Z,76.53
2023-12-18T05:27:42.472Z,76.57
2023-12-18T05:30:44.322Z,76.66
2023-12-18T05:33:46.305Z,76.61
2023-12-18T05:36:48.213Z,76.76
2023-12-18T05:39:50.056Z,76.74
2023-12-18T05:42:51.858Z,76.81
2023-12-18T05:45:53.554Z,76.67
2023-12-18T05:48:55.419Z,76.59
2023-12-18T05:51:57.050Z,76.68
2023-12-18T05:54:58.737Z,76.81
2023-12-18T05:58:00.285Z,76.89
2023-12-18T06:01:03.067Z,76.91
2023-12-18T06:04:04.996Z,77.01
2023-12-18T06:07:06.670Z,76.96
2023-12-18T06:10:09.274Z,77.00
2023-12-18T06:13:11.045Z,76.93
2023-12-18T06:16:12.690Z,76.95
2023-12-18T06:19:14.419Z,77.04
2023-12-18T06:22:16.021Z,77.25
2023-12-18T06:25:17.957Z,77.12
2023-12-18T06:28:19.500Z,76.96
2023-12-18T06:31:21.291Z,76.87
2023-12-18T06:34:26.164Z,76.97
2023-12-18T06:37:30.113Z,76.25
2023-12-18T06:40:33.002Z,75.81
2023-12-18T06:43:34.565Z,75.28
2023-12-18T06:46:36.224Z,74.57
2023-12-18T06:49:37.930Z,73.96
2023-12-18T06:52:39.812Z,73.32
2023-12-18T06:55:41.723Z,72.99
2023-12-18T06:58:43.425Z,72.75
2023-12-18T07:01:45.083Z,71.95
2023-12-18T07:04:46.918Z,71.67
2023-12-18T07:07:48.794Z,71.00
2023-12-18T07:10:50.344Z,70.99
2023-12-18T07:13:52.067Z,70.73
2023-12-18T07:16:53.788Z,70.54
2023-12-18T07:19:55.389Z,71.07
2023-12-18T07:22:57.001Z,71.39
2023-12-18T07:25:58.664Z,71.00
2023-12-18T07:29:00.181Z,70.23
2023-12-18T07:32:02.123Z,70.06
2023-12-18T07:35:04.604Z,69.72
2023-12-18T07:38:06.302Z,69.55
2023-12-18T07:41:08.018Z,69.99
2023-12-18T07:44:09.686Z,70.43
2023-12-18T07:47:11.339Z,70.77
2023-12-18T07:50:12.996Z,71.28
2023-12-18T07:53:14.605Z,71.18
2023-12-18T07:56:16.553Z,70.90
2023-12-18T07:59:18.213Z,71.11
2023-12-18T08:02:19.765Z,70.67
2023-12-18T08:05:21.482Z,70.74
2023-12-18T08:08:23.184Z,70.51
2023-12-18T08:11:24.756Z,70.24
2023-12-18T08:14:26.381Z,70.29
2023-12-18T08:17:28.231Z,70.07
2023-12-18T08:20:30.113Z,70.38
2023-12-18T08:23:31.747Z,70.76
2023-12-18T08:26:33.329Z,71.09
2023-12-18T08:29:34.885Z,71.04
2023-12-18T08:32:36.914Z,70.98
2023-12-18T08:35:38.644Z,70.82
2023-12-18T08:38:40.246Z,69.84
2023-12-18T08:41:42.009Z,68.04
2023-12-18T08:44:43.900Z,66.31
2023-12-18T08:47:45.734Z,65.29
2023-12-18T08:50:47.565Z,65.50
2023-12-18T08:53:49.361Z,65.58
2023-12-18T08:56:51.119Z,64.47
2023-12-18T08:59:53.124Z,62.48
2023-12-18T09:02:54.845Z,61.06
2023-12-18T09:05:56.553Z,58.95
2023-12-18T09:08:58.432Z,58.91
2023-12-18T09:12:00.166Z,59.33
2023-12-18T09:15:01.811Z,59.41
2023-12-18T09:18:03.957Z,58.92
2023-12-18T09:21:05.636Z,58.37
2023-12-18T09:24:07.524Z,56.81
2023-12-18T09:27:09.192Z,56.12
2023-12-18T09:30:11.939Z,54.58
2023-12-18T09:33:13.875Z,53.44
2023-12-18T09:36:16.262Z,52.19
2023-12-18T09:39:18.173Z,53.55
2023-12-18T09:42:21.487Z,50.53
2023-12-18T09:45:24.519Z,49.62
2023-12-18T09:48:26.453Z,50.23
2023-12-18T09:51:28.378Z,51.89
2023-12-18T09:54:30.445Z,49.67
2023-12-18T09:57:32.298Z,49.40
2023-12-18T10:00:34.448Z,47.85
2023-12-18T10:03:36.354Z,49.02
2023-12-18T10:06:38.125Z,48.75
2023-12-18T10:09:40.330Z,49.72
2023-12-18T10:12:42.752Z,46.95
2023-12-18T10:15:44.736Z,46.09
2023-12-18T10:18:46.526Z,47.17
2023-12-18T10:21:49.477Z,46.39
2023-12-18T10:24:51.177Z,48.54
2023-12-18T10:27:56.155Z,46.88
2023-12-18T10:30:58.154Z,47.93
2023-12-18T10:34:00.071Z,47.42
2023-12-18T10:37:01.961Z,47.17
2023-12-18T10:40:04.208Z,46.26
2023-12-18T10:43:25.044Z,47.22
2023-12-18T10:46:27.690Z,46.29
2023-12-18T10:49:29.521Z,47.08
2023-12-18T10:52:32.189Z,46.54
2023-12-18T10:55:34.181Z,45.11
2023-12-18T10:58:36.015Z,45.93
2023-12-18T11:01:38.060Z,44.53
2023-12-18T11:04:39.766Z,44.87
2023-12-18T11:07:42.169Z,46.06
2023-12-18T11:10:44.101Z,45.71
2023-12-18T11:13:46.459Z,45.77
2023-12-18T11:17:08.422Z,46.46
2023-12-18T11:20:24.315Z,45.92
2023-12-18T11:23:27.013Z,46.97
2023-12-18T11:26:30.104Z,47.83
2023-12-18T11:29:42.622Z,48.00
2023-12-18T11:32:47.777Z,48.30
2023-12-18T11:35:50.265Z,50.74
2023-12-18T11:38:52.016Z,51.21
2023-12-18T11:41:53.769Z,50.80
2023-12-18T11:44:55.482Z,52.15
2023-12-18T11:47:58.750Z,53.41
2023-12-18T11:51:01.632Z,53.69
2023-12-18T11:54:03.627Z,53.85
2023-12-18T11:57:15.400Z,55.30
2023-12-18T12:00:17.759Z,55.47
2023-12-18T12:03:20.293Z,55.53
2023-12-18T12:06:25.406Z,55.32
2023-12-18T12:09:27.362Z,55.60
2023-12-18T12:12:29.142Z,56.10
2023-12-18T12:15:30.930Z,56.65
2023-12-18T12:18:35.834Z,56.53
2023-12-18T12:21:45.297Z,56.31
2023-12-18T12:24:49.475Z,56.59
2023-12-18T12:27:51.884Z,56.19
2023-12-18T12:30:54.145Z,55.71
2023-12-18T12:33:56.293Z,55.72
2023-12-18T12:37:02.058Z,55.94
2023-12-18T12:40:05.519Z,56.29
2023-12-18T12:43:07.691Z,56.96
2023-12-18T12:46:09.599Z,56.97
2023-12-18T12:49:12.276Z,57.67
2023-12-18T12:52:14.973Z,57.85
2023-12-18T12:55:16.771Z,57.61
2023-12-18T12:58:18.465Z,57.36
2023-12-18T13:01:20.232Z,57.29
2023-12-18T13:04:23.174Z,57.64
2023-12-18T13:07:25.090Z,57.21
2023-12-18T13:10:27.261Z,57.47
2023-12-18T13:13:29.508Z,57.13
2023-12-18T13:16:31.180Z,57.89
2023-12-18T13:19:34.644Z,57.92
2023-12-18T13:22:36.426Z,58.06
2023-12-18T13:25:38.099Z,57.87
2023-12-18T13:28:40.560Z,58.37
2023-12-18T13:31:42.355Z,58.73
2023-12-18T13:34:44.153Z,58.86
2023-12-18T13:37:46.127Z,59.14
2023-12-18T13:40:47.927Z,58.32
2023-12-18T13:43:49.638Z,58.61
2023-12-18T13:46:51.667Z,59.26
2023-12-18T13:49:53.690Z,59.52
2023-12-18T13:52:55.469Z,59.68
2023-12-18T13:55:57.121Z,59.83
2023-12-18T13:59:00.917Z,59.76
2023-12-18T14:02:03.504Z,60.15
2023-12-18T14:05:16.932Z,60.45
2023-12-18T14:08:18.699Z,60.42
2023-12-18T14:11:20.460Z,60.48
2023-12-18T14:14:22.173Z,60.77
2023-12-18T14:17:23.888Z,60.92
2023-12-18T14:20:25.634Z,60.75
2023-12-18T14:23:27.247Z,60.70
2023-12-18T14:26:28.954Z,60.88
2023-12-18T14:29:30.522Z,61.00
2023-12-18T14:32:32.311Z,61.12
2023-12-18T14:35:34.432Z,61.27
2023-12-18T14:38:36.126Z,61.58
2023-12-18T14:41:37.886Z,61.38
2023-12-18T14:44:40.461Z,61.38
2023-12-18T14:47:42.444Z,61.38
2023-12-18T14:50:44.098Z,61.59
2023-12-18T14:53:45.831Z,61.64
2023-12-18T14:56:47.491Z,62.00
2023-12-18T14:59:49.248Z,61.23
2023-12-18T15:02:50.890Z,61.14
2023-12-18T15:05:53.021Z,61.00
2023-12-18T15:08:54.767Z,60.77
2023-12-18T15:11:56.728Z,60.64
2023-12-18T15:14:58.461Z,60.80
2023-12-18T15:18:00.190Z,61.32
2023-12-18T15:21:03.720Z,61.43
2023-12-18T15:24:09.647Z,61.21
2023-12-18T15:27:12.578Z,60.89
2023-12-18T15:30:15.150Z,61.29
2023-12-18T15:33:18.095Z,60.59
2023-12-18T15:36:20.373Z,61.03
2023-12-18T15:39:24.205Z,61.21
2023-12-18T15:42:26.140Z,61.44
2023-12-18T15:45:27.832Z,61.69
2023-12-18T15:48:29.619Z,62.00
2023-12-18T15:51:31.387Z,62.15
2023-12-18T15:54:33.074Z,62.32
2023-12-18T15:57:36.183Z,62.25
2023-12-18T16:00:38.132Z,61.57
2023-12-18T16:03:40.409Z,61.45
2023-12-18T16:06:42.237Z,61.87
2023-12-18T16:09:43.962Z,62.01
2023-12-18T16:12:46.089Z,61.68
2023-12-18T16:15:47.987Z,62.18
2023-12-18T16:18:50.025Z,62.04
2023-12-18T16:21:51.850Z,62.01
2023-12-18T16:24:53.931Z,62.24
2023-12-18T16:27:55.691Z,62.20
2023-12-18T16:30:58.242Z,62.30
2023-12-18T16:34:00.128Z,62.29
2023-12-18T16:37:03.472Z,62.17
2023-12-18T16:40:05.840Z,61.83
2023-12-18T16:43:07.567Z,61.92
2023-12-18T16:46:09.363Z,61.76
2023-12-18T16:49:11.152Z,61.82
2023-12-18T16:52:13.038Z,61.49
2023-12-18T16:55:14.813Z,61.66
2023-12-18T16:58:16.471Z,61.47
2023-12-18T17:01:18.403Z,61.95
2023-12-18T17:04:20.132Z,61.52
2023-12-18T17:07:22.326Z,61.43
2023-12-18T17:10:24.222Z,61.48
2023-12-18T17:13:26.206Z,61.32
2023-12-18T17:16:27.900Z,61.37
2023-12-18T17:19:29.685Z,61.24
2023-12-18T17:22:31.336Z,61.69
2023-12-18T17:25:33.123Z,61.76
2023-12-18T17:28:34.708Z,61.83
2023-12-18T17:31:36.837Z,61.83
2023-12-18T17:34:38.603Z,61.86
2023-12-18T17:37:40.398Z,61.82
2023-12-18T17:40:41.956Z,61.33
2023-12-18T17:43:43.585Z,61.48
2023-12-18T17:46:45.348Z,61.53
2023-12-18T17:49:47.268Z,61.47
2023-12-18T17:52:49.941Z,61.82
2023-12-18T17:55:51.558Z,61.61
2023-12-18T17:58:53.426Z,61.85
2023-12-18T18:01:55.031Z,61.71
2023-12-18T18:04:56.634Z,61.46
2023-12-18T18:07:58.204Z,61.45
2023-12-18T18:11:06.535Z,61.60
2023-12-18T18:14:08.095Z,61.65
2023-12-18T18:17:09.700Z,61.57
2023-12-18T18:20:11.767Z,61.64
2023-12-18T18:23:13.465Z,61.17
2023-12-18T18:26:15.079Z,61.55
2023-12-18T18:29:16.756Z,61.71
2023-12-18T18:32:18.462Z,61.56
2023-12-18T18:35:20.234Z,61.83
2023-12-18T18:38:24.809Z,61.49
2023-12-18T18:41:26.397Z,61.56
2023-12-18T18:44:28.134Z,61.27
2023-12-18T18:47:29.820Z,61.46
2023-12-18T18:50:31.426Z,61.41
2023-12-18T18:53:33.159Z,61.22
2023-12-18T18:56:34.756Z,61.20
2023-12-18T18:59:36.338Z,61.12
2023-12-18T19:02:37.896Z,61.26
2023-12-18T19:05:39.608Z,61.14
2023-12-18T19:08:41.636Z,61.28
2023-12-18T19:11:43.306Z,61.66
2023-12-18T19:14:44.932Z,61.55
2023-12-18T19:17:47.008Z,61.68
2023-12-18T19:20:50.458Z,61.66
2023-12-18T19:23:52.471Z,61.74
2023-12-18T19:26:54.099Z,61.84
2023-12-18T19:29:55.716Z,61.63
2023-12-18T19:32:57.516Z,62.04
2023-12-18T19:35:59.148Z,61.89
2023-12-18T19:39:00.684Z,62.02
2023-12-18T19:42:02.323Z,62.32
2023-12-18T19:45:03.973Z,62.30
2023-12-18T19:48:05.847Z,62.45
2023-12-18T19:51:07.472Z,62.50
2023-12-18T19:54:09.347Z,62.63
2023-12-18T19:57:10.921Z,62.78
2023-12-18T20:00:12.841Z,62.67
2023-12-18T20:03:14.728Z,62.84
2023-12-18T20:06:16.725Z,62.87
2023-12-18T20:09:19.005Z,63.04
2023-12-18T20:12:20.791Z,63.13
2023-12-18T20:15:22.514Z,63.08
2023-12-18T20:18:24.373Z,63.17
2023-12-18T20:21:26.149Z,63.28
2023-12-18T20:24:28.220Z,63.27
2023-12-18T20:27:29.894Z,63.14
2023-12-18T20:30:31.604Z,63.14
2023-12-18T20:33:36.291Z,63.00
2023-12-18T20:36:38.034Z,63.00
2023-12-18T20:39:39.958Z,63.23
2023-12-18T20:42:41.933Z,63.12
2023-12-18T20:45:43.744Z,63.15
2023-12-18T20:48:45.530Z,63.08
2023-12-18T20:51:47.263Z,63.02
2023-12-18T20:54:49.428Z,62.87
2023-12-18T20:57:51.110Z,62.85
2023-12-18T21:00:52.906Z,62.88
2023-12-18T21:03:54.652Z,62.94
2023-12-18T21:06:56.774Z,62.91
2023-12-18T21:09:59.685Z,63.08
2023-12-18T21:13:02.205Z,63.03
2023-12-18T21:16:04.169Z,63.29
2023-12-18T21:19:05.925Z,63.21
2023-12-18T21:22:07.670Z,63.09
2023-12-18T21:25:10.984Z,63.06
2023-12-18T21:28:12.604Z,62.81
2023-12-18T21:31:15.048Z,62.84
2023-12-18T21:34:16.817Z,63.08
2023-12-18T21:37:18.528Z,63.01
2023-12-18T21:40:21.031Z,63.01
2023-12-18T21:43:23.393Z,63.10
2023-12-18T21:46:25.776Z,62.98
2023-12-18T21:49:27.772Z,63.04
2023-12-18T21:52:29.674Z,63.09
2023-12-18T21:55:33.043Z,63.11
2023-12-18T21:58:34.690Z,63.36
2023-12-18T22:01:38.696Z,63.16
2023-12-18T22:04:40.858Z,63.21
2023-12-18T22:07:42.633Z,63.37
2023-12-18T22:10:44.413Z,63.45
2023-12-18T22:13:46.110Z,63.43
2023-12-18T22:16:48.132Z,63.55
2023-12-18T22:19:49.957Z,63.66
2023-12-18T22:22:51.719Z,63.75
2023-12-18T22:25:53.704Z,63.79
2023-12-18T22:28:55.249Z,63.84
2023-12-18T22:31:56.882Z,64.04
2023-12-18T22:34:58.788Z,64.20
2023-12-18T22:38:00.482Z,64.34
2023-12-18T22:41:02.413Z,64.43
2023-12-18T22:44:04.026Z,64.24
2023-12-18T22:47:05.761Z,64.56
2023-12-18T22:50:07.656Z,64.54
2023-12-18T22:53:09.321Z,64.63
2023-12-18T22:56:11.169Z,64.71
2023-12-18T22:59:12.822Z,64.70
2023-12-18T23:02:14.458Z,64.89
2023-12-18T23:05:16.367Z,64.86
2023-12-18T23:08:17.909Z,65.22
2023-12-18T23:11:21.300Z,65.31
2023-12-18T23:14:22.885Z,65.33
2023-12-18T23:17:24.529Z,65.53
2023-12-18T23:20:26.118Z,65.60
2023-12-18T23:23:27.762Z,65.41
2023-12-18T23:26:29.960Z,65.44
2023-12-18T23:29:31.540Z,65.76
2023-12-18T23:32:33.573Z,65.87
2023-12-18T23:35:35.223Z,65.74
2023-12-18T23:38:37.094Z,65.97
2023-12-18T23:41:38.967Z,65.98
2023-12-18T23:44:40.558Z,66.21
2023-12-18T23:47:42.142Z,66.39
2023-12-18T23:50:46.952Z,66.57
2023-12-18T23:53:48.623Z,66.53
2023-12-18T23:56:50.566Z,66.67
2023-12-18T23:59:52.569Z,66.89
